Time;durP1;ratioP1;P1;durP2;ratioP2;P2;SDS_P1;SDS_P2;PMS_P1;PMS_P2;Temp;Humidity;BMP_temperature;BMP_pressure;BME280_temperature;BME280_humidity;BME280_pressure;Samples;Min_cycle;Max_cycle;Signal;HPM_P1;HPM_P2
2022/04/18 00:00:00;;;;;;;5.30;3.87;;;;;;;-150.27;100.00;61272.81;5249240;28;20013;-78
2022/04/18 00:02:31;;;;;;;7.17;4.67;;;;;;;-150.27;100.00;61272.81;5248977;28;20024;-77
2022/04/18 00:05:03;;;;;;;8.27;4.00;;;;;;;-150.27;100.00;61272.81;5248039;28;20422;-77
2022/04/18 00:07:35;;;;;;;6.90;4.27;;;;;;;-150.27;100.00;61272.81;5244928;28;20542;-76
2022/04/18 00:10:06;;;;;;;10.43;4.23;;;;;;;-150.27;100.00;61272.81;5240542;28;20033;-77
2022/04/18 00:12:37;;;;;;;9.47;3.70;;;;;;;-150.27;100.00;61272.81;5244613;28;20037;-77
2022/04/18 00:15:09;;;;;;;5.43;3.50;;;;;;;-150.27;100.00;61272.81;5238648;28;20035;-77
2022/04/18 00:17:40;;;;;;;6.20;4.20;;;;;;;-150.27;100.00;61272.81;5245020;28;20022;-77
2022/04/18 00:20:12;;;;;;;5.13;3.87;;;;;;;-150.27;100.00;61272.81;5216672;28;20025;-78
2022/04/18 00:22:44;;;;;;;7.13;3.70;;;;;;;-150.27;100.00;61272.81;5210242;28;20061;-77
2022/04/18 00:25:15;;;;;;;7.13;3.63;;;;;;;-150.27;100.00;61272.81;5211726;28;20021;-77
2022/04/18 00:27:47;;;;;;;11.50;4.10;;;;;;;-150.27;100.00;61272.81;5248760;28;20025;-78
2022/04/18 00:30:18;;;;;;;5.33;4.03;;;;;;;-150.27;100.00;61272.81;5248486;28;20037;-77
2022/04/18 00:32:50;;;;;;;5.63;3.83;;;;;;;-150.27;100.00;61272.81;5230909;28;20044;-77
2022/04/18 00:35:21;;;;;;;11.00;3.70;;;;;;;-150.27;100.00;61272.81;5247274;28;20629;-77
2022/04/18 00:37:52;;;;;;;6.37;3.33;;;;;;;-150.27;100.00;61272.81;5248216;28;20021;-74
2022/04/18 00:40:23;;;;;;;5.10;3.57;;;;;;;-150.27;100.00;61272.81;5249342;28;20082;-77
2022/04/18 00:43:04;;;;;;;6.00;3.70;;;;;;;-150.27;100.00;61272.81;5253224;28;20067;-78
2022/04/18 00:45:35;;;;;;;8.60;3.30;;;;;;;-150.27;100.00;61272.81;5250614;28;20508;-78
2022/04/18 00:48:07;;;;;;;10.27;3.40;;;;;;;-150.27;100.00;61272.81;5235258;28;20028;-77
2022/04/18 00:50:40;;;;;;;6.27;3.00;;;;;;;-150.27;100.00;61272.81;5252067;28;20021;-79
2022/04/18 00:53:12;;;;;;;4.37;3.03;;;;;;;-150.27;100.00;61272.81;5252564;28;20678;-80
2022/04/18 00:55:44;;;;;;;4.23;2.70;;;;;;;-150.27;100.00;61272.81;5240633;28;20037;-80
2022/04/18 00:58:15;;;;;;;4.80;3.00;;;;;;;-150.27;100.00;61272.81;5252742;28;20123;-81
2022/04/18 01:00:47;;;;;;;6.83;3.37;;;;;;;-150.27;100.00;61272.81;5252504;28;20120;-78
2022/04/18 01:03:21;;;;;;;4.87;2.70;;;;;;;-150.27;100.00;61272.81;5258906;22;20138;-78
2022/04/18 01:05:52;;;;;;;4.45;2.70;;;;;;;-150.27;100.00;61272.81;5234622;28;20035;-78
2022/04/18 01:08:25;;;;;;;9.40;3.00;;;;;;;-150.27;100.00;61272.81;5232252;28;20033;-78
2022/04/18 01:10:56;;;;;;;4.43;2.63;;;;;;;-150.27;100.00;61272.81;5249707;28;20108;-78
2022/04/18 01:13:28;;;;;;;7.20;2.67;;;;;;;-150.27;100.00;61272.81;5238716;28;20609;-78
2022/04/18 01:15:59;;;;;;;5.27;2.90;;;;;;;-150.27;100.00;61272.81;5242727;28;20052;-79
2022/04/18 01:18:30;;;;;;;9.27;3.33;;;;;;;-150.27;100.00;61272.81;5231737;28;20103;-78
2022/04/18 01:21:03;;;;;;;10.90;3.27;;;;;;;-150.27;100.00;61272.81;5230965;28;20048;-79
2022/04/18 01:23:35;;;;;;;6.70;3.17;;;;;;;-150.27;100.00;61272.81;5235506;28;20021;-80
2022/04/18 01:28:59;;;;;;;4.43;2.40;;;;;;;-150.27;100.00;61272.81;5253261;28;20128;-77
2022/04/18 01:31:33;;;;;;;4.65;2.78;;;;;;;-150.27;100.00;61272.81;5233987;28;20040;-78
2022/04/18 01:34:07;;;;;;;3.40;2.33;;;;;;;-150.27;100.00;61272.81;5252346;28;20048;-78
2022/04/18 01:36:38;;;;;;;35.93;3.90;;;;;;;-150.27;100.00;61272.81;5251802;28;20059;-78
2022/04/18 01:39:09;;;;;;;4.33;2.60;;;;;;;-150.27;100.00;61272.81;5238659;28;20541;-78
2022/04/18 01:41:41;;;;;;;6.23;2.57;;;;;;;-150.27;100.00;61272.81;5241390;28;20026;-78
2022/04/18 01:44:12;;;;;;;8.73;2.77;;;;;;;-150.27;100.00;61272.81;5230834;28;20036;-78
2022/04/18 01:46:44;;;;;;;4.43;2.90;;;;;;;-150.27;100.00;61272.81;5231918;28;20448;-78
2022/04/18 01:49:15;;;;;;;4.00;2.63;;;;;;;-150.27;100.00;61272.81;5231157;28;20064;-78
2022/04/18 01:51:46;;;;;;;6.13;2.70;;;;;;;-150.27;100.00;61272.81;5230031;28;20044;-78
2022/04/18 01:54:18;;;;;;;8.63;2.97;;;;;;;-150.27;100.00;61272.81;5231585;28;20022;-78
2022/04/18 01:56:49;;;;;;;5.20;2.90;;;;;;;-150.27;100.00;61272.81;5231161;28;20391;-78
2022/04/18 01:59:20;;;;;;;5.17;3.17;;;;;;;-150.27;100.00;61272.81;5213760;28;20484;-78
2022/04/18 02:01:51;;;;;;;7.50;3.47;;;;;;;-150.27;100.00;61272.81;5230730;28;20051;-78
2022/04/18 02:04:23;;;;;;;4.87;2.63;;;;;;;-150.27;100.00;61272.81;5228398;28;20060;-78
2022/04/18 02:06:54;;;;;;;5.80;2.57;;;;;;;-150.27;100.00;61272.81;5231360;28;20033;-77
2022/04/18 02:09:25;;;;;;;3.47;2.80;;;;;;;-150.27;100.00;61272.81;5230896;28;20028;-78
2022/04/18 02:11:56;;;;;;;5.00;3.10;;;;;;;-150.27;100.00;61272.81;5231347;28;20079;-78
2022/04/18 02:14:28;;;;;;;7.63;2.93;;;;;;;-150.27;100.00;61272.81;5244484;28;20060;-79
2022/04/18 02:16:59;;;;;;;3.60;2.77;;;;;;;-150.27;100.00;61272.81;5230654;28;20013;-79
2022/04/18 02:19:30;;;;;;;6.80;2.63;;;;;;;-150.27;100.00;61272.81;5248879;28;20031;-79
2022/04/18 02:22:02;;;;;;;4.33;2.73;;;;;;;-150.27;100.00;61272.81;5252074;28;20016;-79
2022/04/18 02:24:33;;;;;;;8.13;3.43;;;;;;;-150.27;100.00;61272.81;5234158;28;20109;-79
2022/04/18 02:27:06;;;;;;;7.57;2.70;;;;;;;-150.27;100.00;61272.81;5237747;28;20124;-79
2022/04/18 02:29:37;;;;;;;7.83;2.60;;;;;;;-150.27;100.00;61272.81;5250728;28;20028;-77
2022/04/18 02:34:59;;;;;;;6.83;3.00;;;;;;;-150.27;100.00;61272.81;5239039;28;20033;-78
2022/04/18 02:37:30;;;;;;;5.37;2.20;;;;;;;-150.27;100.00;61272.81;5250781;28;20032;-78
2022/04/18 02:40:02;;;;;;;5.70;2.73;;;;;;;-150.27;100.00;61272.81;5251222;28;20037;-78
2022/04/18 02:42:33;;;;;;;5.20;2.47;;;;;;;-150.27;100.00;61272.81;5250774;28;20112;-78
2022/04/18 02:45:05;;;;;;;5.30;2.60;;;;;;;-150.27;100.00;61272.81;5232919;28;20037;-78
2022/04/18 02:47:36;;;;;;;7.17;2.23;;;;;;;-150.27;100.00;61272.81;5250440;28;20533;-78
2022/04/18 02:50:08;;;;;;;3.97;2.43;;;;;;;-150.27;100.00;61272.81;5228343;28;20460;-77
2022/04/18 02:52:39;;;;;;;6.93;2.87;;;;;;;-150.27;100.00;61272.81;5250330;28;20021;-76
2022/04/18 02:55:11;;;;;;;10.67;2.60;;;;;;;-150.27;100.00;61272.81;5232989;28;20585;-77
2022/04/18 02:57:43;;;;;;;7.53;2.70;;;;;;;-150.27;100.00;61272.81;5229086;28;20029;-76
2022/04/18 03:00:14;;;;;;;5.67;2.60;;;;;;;-150.27;100.00;61272.81;5248630;28;20025;-77
2022/04/18 03:02:46;;;;;;;9.80;2.93;;;;;;;-150.27;100.00;61272.81;5244137;28;20711;-77
2022/04/18 03:05:17;;;;;;;4.60;3.07;;;;;;;-150.27;100.00;61272.81;5218321;28;20046;-77
2022/04/18 03:07:49;;;;;;;5.27;3.20;;;;;;;-150.27;100.00;61272.81;5249051;28;20033;-76
2022/04/18 03:11:02;;;;;;;8.03;4.43;;;;;;;-150.27;100.00;61272.81;5250785;28;20027;-77
2022/04/18 03:13:11;;;;;;;10.03;3.70;;;;;;;-150.27;100.00;61272.81;5232412;28;20399;-77
2022/04/18 03:15:43;;;;;;;7.03;4.33;;;;;;;-150.27;100.00;61272.81;5198328;28;20025;-77
2022/04/18 03:18:14;;;;;;;9.53;3.83;;;;;;;-150.27;100.00;61272.81;5213929;28;20080;-77
2022/04/18 03:20:45;;;;;;;7.70;4.23;;;;;;;-150.27;100.00;61272.81;5228983;28;20041;-78
2022/04/18 03:23:17;;;;;;;10.27;4.40;;;;;;;-150.27;100.00;61272.81;5229408;28;20033;-77
2022/04/18 03:25:48;;;;;;;9.97;5.10;;;;;;;-150.27;100.00;61272.81;5229551;28;20025;-77
2022/04/18 03:28:20;;;;;;;8.40;4.80;;;;;;;-150.27;100.00;61272.81;5211022;28;20044;-77
2022/04/18 03:30:52;;;;;;;10.37;6.00;;;;;;;-150.27;100.00;61272.81;5229456;28;20037;-76
2022/04/18 03:33:23;;;;;;;8.33;5.67;;;;;;;-150.27;100.00;61272.81;5228631;28;20083;-77
2022/04/18 03:41:34;;;;;;;8.97;5.27;;;;;;;-150.27;100.00;61272.81;5229346;28;20665;-77
2022/04/18 03:44:06;;;;;;;10.03;5.37;;;;;;;-150.27;100.00;61272.81;5229278;28;20109;-77
2022/04/18 03:46:37;;;;;;;6.90;4.80;;;;;;;-150.27;100.00;61272.81;5228942;28;20031;-77
2022/04/18 03:49:09;;;;;;;6.13;4.77;;;;;;;-150.27;100.00;61272.81;5210155;28;20060;-78
2022/04/18 03:51:40;;;;;;;7.23;4.60;;;;;;;-150.27;100.00;61272.81;5211060;28;20088;-78
2022/04/18 03:54:12;;;;;;;6.83;4.70;;;;;;;-150.27;100.00;61272.81;5228831;28;20026;-76
2022/04/18 03:56:43;;;;;;;8.13;4.40;;;;;;;-150.27;100.00;61272.81;5211299;28;20255;-76
2022/04/18 03:59:14;;;;;;;8.80;3.97;;;;;;;-150.27;100.00;61272.81;5229376;28;20064;-77
2022/04/18 04:01:45;;;;;;;5.27;3.73;;;;;;;-150.27;100.00;61272.81;5227518;28;20021;-76
2022/04/18 04:04:17;;;;;;;7.37;3.80;;;;;;;-150.27;100.00;61272.81;5212500;28;20051;-78
2022/04/18 04:06:48;;;;;;;11.10;3.73;;;;;;;-150.27;100.00;61272.81;5237595;28;20037;-78
2022/04/18 04:09:19;;;;;;;6.10;4.17;;;;;;;-150.27;100.00;61272.81;5236934;28;20033;-77
2022/04/18 04:11:51;;;;;;;4.43;3.03;;;;;;;-150.27;100.00;61272.81;5242536;28;20021;-77
2022/04/18 04:14:22;;;;;;;8.43;3.43;;;;;;;-150.27;100.00;61272.81;5227808;28;20030;-76
2022/04/18 04:16:54;;;;;;;6.93;3.67;;;;;;;-150.27;100.00;61272.81;5228830;28;20049;-78
2022/04/18 04:19:25;;;;;;;4.63;3.10;;;;;;;-150.27;100.00;61272.81;5227582;28;20036;-77
2022/04/18 04:21:57;;;;;;;6.47;3.20;;;;;;;-150.27;100.00;61272.81;5228890;28;20112;-77
2022/04/18 04:24:28;;;;;;;5.43;3.37;;;;;;;-150.27;100.00;61272.81;5228238;28;20383;-77
2022/04/18 04:26:59;;;;;;;3.80;2.97;;;;;;;-150.27;100.00;61272.81;5228499;28;20094;-77
2022/04/18 04:29:31;;;;;;;4.23;2.87;;;;;;;-150.27;100.00;61272.81;5209732;28;20766;-78
2022/04/18 04:32:03;;;;;;;7.03;2.93;;;;;;;-150.27;100.00;61272.81;5227336;28;20479;-78
2022/04/18 04:34:34;;;;;;;5.20;3.17;;;;;;;-150.27;100.00;61272.81;5227942;28;20067;-81
2022/04/18 04:37:06;;;;;;;5.30;2.90;;;;;;;-150.27;100.00;61272.81;5224603;28;20024;-81
2022/04/18 04:39:37;;;;;;;6.53;2.70;;;;;;;-150.27;100.00;61272.81;5227013;28;20029;-84
2022/04/18 04:42:09;;;;;;;3.83;3.10;;;;;;;-150.27;100.00;61272.81;5246600;28;20087;-85
2022/04/18 04:44:40;;;;;;;4.63;3.03;;;;;;;-150.27;100.00;61272.81;5249333;28;20126;-83
2022/04/18 04:47:12;;;;;;;4.57;3.33;;;;;;;-150.27;100.00;61272.81;5231904;28;20013;-87
2022/04/18 04:49:43;;;;;;;4.13;2.63;;;;;;;-150.27;100.00;61272.81;5247779;28;20842;-81
2022/04/18 04:52:14;;;;;;;6.30;3.10;;;;;;;-150.27;100.00;61272.81;5215686;28;20120;-77
2022/04/18 04:54:45;;;;;;;5.83;3.33;;;;;;;-150.27;100.00;61272.81;5230495;28;20029;-79
2022/04/18 04:57:17;;;;;;;5.43;2.70;;;;;;;-150.27;100.00;61272.81;5242889;28;20144;-79
2022/04/18 04:59:48;;;;;;;5.07;3.10;;;;;;;-150.27;100.00;61272.81;5248460;28;20033;-81
2022/04/18 05:02:19;;;;;;;4.47;2.90;;;;;;;-150.27;100.00;61272.81;5248500;28;20040;-75
2022/04/18 05:04:51;;;;;;;4.90;3.07;;;;;;;-150.27;100.00;61272.81;5241839;28;20045;-79
2022/04/18 05:07:22;;;;;;;4.83;2.60;;;;;;;-150.27;100.00;61272.81;5210934;28;20025;-81
2022/04/18 05:09:54;;;;;;;5.53;2.77;;;;;;;-150.27;100.00;61272.81;5196471;28;20087;-80
2022/04/18 05:12:28;;;;;;;6.83;3.50;;;;;;;-150.27;100.00;61272.81;5227548;28;20060;-79
2022/04/18 05:15:04;;;;;;;5.57;3.30;;;;;;;-150.27;100.00;61272.81;5246310;28;20032;-78
2022/04/18 05:17:35;;;;;;;5.03;3.00;;;;;;;-150.27;100.00;61272.81;5219040;28;20036;-76
2022/04/18 05:20:07;;;;;;;7.23;2.97;;;;;;;-150.27;100.00;61272.81;5229788;28;20030;-77
2022/04/18 05:22:39;;;;;;;8.73;2.73;;;;;;;-150.27;100.00;61272.81;5228004;28;20040;-76
2022/04/18 05:25:10;;;;;;;7.70;3.23;;;;;;;-150.27;100.00;61272.81;5210382;28;20030;-78
2022/04/18 05:27:42;;;;;;;6.27;2.80;;;;;;;-150.27;100.00;61272.81;5228877;28;20033;-77
2022/04/18 05:30:13;;;;;;;4.70;2.80;;;;;;;-150.27;100.00;61272.81;5215044;28;20112;-78
2022/04/18 05:32:45;;;;;;;9.57;3.23;;;;;;;-150.27;100.00;61272.81;5233142;28;20616;-78
2022/04/18 05:35:16;;;;;;;6.93;2.43;;;;;;;-150.27;100.00;61272.81;5214796;28;20116;-78
2022/04/18 05:37:47;;;;;;;7.20;3.47;;;;;;;-150.27;100.00;61272.81;5213757;28;20028;-78
2022/04/18 05:40:19;;;;;;;5.17;3.50;;;;;;;-150.27;100.00;61272.81;5197949;28;20021;-77
2022/04/18 05:42:51;;;;;;;8.80;3.40;;;;;;;-150.27;100.00;61272.81;5240522;28;20072;-78
2022/04/18 05:45:22;;;;;;;5.83;3.00;;;;;;;-150.27;100.00;61272.81;5249634;28;20038;-80
2022/04/18 05:47:54;;;;;;;5.83;2.70;;;;;;;-150.27;100.00;61272.81;5230842;28;20472;-82
2022/04/18 05:50:25;;;;;;;7.23;3.40;;;;;;;-150.27;100.00;61272.81;5230749;28;20528;-81
2022/04/18 05:52:56;;;;;;;9.10;3.53;;;;;;;-150.27;100.00;61272.81;5231052;28;20033;-79
2022/04/18 05:55:27;;;;;;;6.80;2.77;;;;;;;-150.27;100.00;61272.81;5233945;28;20033;-81
2022/04/18 05:57:59;;;;;;;4.43;2.70;;;;;;;-150.27;100.00;61272.81;5233658;28;20035;-84
2022/04/18 06:00:32;;;;;;;7.00;2.80;;;;;;;-150.27;100.00;61272.81;5249987;28;20033;-84
2022/04/18 06:03:03;;;;;;;9.30;3.30;;;;;;;-150.27;100.00;61272.81;5250415;28;20501;-83
2022/04/18 06:05:34;;;;;;;4.80;2.80;;;;;;;-150.27;100.00;61272.81;5248236;28;20029;-84
2022/04/18 06:08:06;;;;;;;5.30;2.67;;;;;;;-150.27;100.00;61272.81;5234127;28;20065;-84
2022/04/18 06:10:41;;;;;;;5.77;2.80;;;;;;;-150.27;100.00;61272.81;5233443;28;20033;-84
2022/04/18 06:13:12;;;;;;;6.43;2.60;;;;;;;-150.27;100.00;61272.81;5215874;28;20428;-85
2022/04/18 06:15:44;;;;;;;5.27;2.73;;;;;;;-150.27;100.00;61272.81;5230935;28;20030;-82
2022/04/18 06:18:15;;;;;;;7.13;3.27;;;;;;;-150.27;100.00;61272.81;5230141;28;20144;-85
2022/04/18 06:20:46;;;;;;;6.07;2.67;;;;;;;-150.27;100.00;61272.81;5230504;28;20053;-84
2022/04/18 06:23:18;;;;;;;4.50;2.40;;;;;;;-150.27;100.00;61272.81;5230427;28;20040;-85
2022/04/18 06:25:49;;;;;;;5.07;2.90;;;;;;;-150.27;100.00;61272.81;5230634;28;20063;-85
2022/04/18 06:28:20;;;;;;;7.10;2.33;;;;;;;-150.27;100.00;61272.81;5231085;28;20058;-84
2022/04/18 06:30:51;;;;;;;7.67;2.60;;;;;;;-150.27;100.00;61272.81;5230318;28;20029;-84
2022/04/18 06:33:23;;;;;;;4.37;3.00;;;;;;;-150.27;100.00;61272.81;5229569;28;20029;-83
2022/04/18 06:35:54;;;;;;;6.43;2.30;;;;;;;-150.27;100.00;61272.81;5230261;28;20060;-84
2022/04/18 06:38:25;;;;;;;3.43;2.60;;;;;;;-150.27;100.00;61272.81;5230084;28;20521;-85
2022/04/18 06:40:58;;;;;;;4.67;2.90;;;;;;;-150.27;100.00;61272.81;5229918;28;20036;-83
2022/04/18 06:43:29;;;;;;;4.67;2.50;;;;;;;-150.27;100.00;61272.81;5230586;28;20037;-83
2022/04/18 06:46:00;;;;;;;3.73;2.60;;;;;;;-150.27;100.00;61272.81;5230508;28;20041;-85
2022/04/18 06:48:31;;;;;;;3.77;2.50;;;;;;;-150.27;100.00;61272.81;5210717;28;20511;-85
2022/04/18 06:51:03;;;;;;;5.67;3.47;;;;;;;-150.27;100.00;61272.81;5230412;28;20034;-86
2022/04/18 06:53:34;;;;;;;4.23;2.37;;;;;;;-150.27;100.00;61272.81;5229391;28;20124;-85
2022/04/18 06:58:56;;;;;;;5.43;2.50;;;;;;;-150.27;100.00;61272.81;5229998;28;20037;-85
2022/04/18 07:01:27;;;;;;;7.50;3.10;;;;;;;-150.27;100.00;61272.81;5211583;28;20029;-85
2022/04/18 07:03:58;;;;;;;6.13;2.53;;;;;;;-150.27;100.00;61272.81;5228635;28;20056;-85
2022/04/18 07:06:30;;;;;;;19.43;3.77;;;;;;;-150.27;100.00;61272.81;5229982;28;20048;-84
2022/04/18 07:09:01;;;;;;;7.33;2.43;;;;;;;-150.27;100.00;61272.81;5229328;28;20033;-85
2022/04/18 07:11:32;;;;;;;3.70;2.10;;;;;;;-150.27;100.00;61272.81;5229764;28;20171;-84
2022/04/18 07:14:04;;;;;;;5.33;2.53;;;;;;;-150.27;100.00;61272.81;5230153;28;20037;-84
2022/04/18 07:16:35;;;;;;;3.73;2.07;;;;;;;-150.27;100.00;61272.81;5211265;28;20030;-83
2022/04/18 07:19:07;;;;;;;6.17;2.37;;;;;;;-150.27;100.00;61272.81;5228935;28;20026;-84
2022/04/18 07:21:38;;;;;;;3.70;2.23;;;;;;;-150.27;100.00;61272.81;5228987;28;20018;-86
2022/04/18 07:24:10;;;;;;;6.33;1.93;;;;;;;-150.27;100.00;61272.81;5211740;28;20119;-84
2022/04/18 07:26:41;;;;;;;3.50;2.20;;;;;;;-150.27;100.00;61272.81;5229232;28;20075;-85
2022/04/18 07:29:12;;;;;;;5.57;2.00;;;;;;;-150.27;100.00;61272.81;5211602;28;20038;-84
2022/04/18 07:31:44;;;;;;;5.57;2.40;;;;;;;-150.27;100.00;61272.81;5228972;28;20033;-83
2022/04/18 07:34:15;;;;;;;4.00;2.43;;;;;;;-150.27;100.00;61272.81;5227939;28;20057;-85
2022/04/18 07:36:46;;;;;;;3.83;2.00;;;;;;;-150.27;100.00;61272.81;5229174;28;20778;-85
2022/04/18 07:39:18;;;;;;;3.90;2.00;;;;;;;-150.27;100.00;61272.81;5228791;28;20506;-85
2022/04/18 07:41:49;;;;;;;2.70;1.93;;;;;;;-150.27;100.00;61272.81;5228609;28;20721;-85
2022/04/18 07:44:20;;;;;;;3.03;1.80;;;;;;;-150.27;100.00;61272.81;5229595;28;20601;-85
2022/04/18 07:46:52;;;;;;;4.13;2.30;;;;;;;-150.27;100.00;61272.81;5210612;28;20075;-84
2022/04/18 07:49:23;;;;;;;4.80;1.97;;;;;;;-150.27;100.00;61272.81;5227512;28;20048;-86
2022/04/18 07:51:54;;;;;;;2.80;1.70;;;;;;;-150.27;100.00;61272.81;5228192;28;20033;-84
2022/04/18 07:54:25;;;;;;;2.90;1.70;;;;;;;-150.27;100.00;61272.81;5211183;28;20064;-85
2022/04/18 07:56:57;;;;;;;5.03;1.67;;;;;;;-150.27;100.00;61272.81;5210863;28;20025;-85
2022/04/18 07:59:28;;;;;;;2.83;1.73;;;;;;;-150.27;100.00;61272.81;5229539;28;20136;-85
2022/04/18 08:01:59;;;;;;;4.53;2.43;;;;;;;-150.27;100.00;61272.81;5229286;28;20026;-85
2022/04/18 08:04:30;;;;;;;3.83;2.10;;;;;;;-150.27;100.00;61272.81;5209455;28;20049;-85
2022/04/18 08:07:02;;;;;;;4.20;2.07;;;;;;;-150.27;100.00;61272.81;5211384;28;20056;-85
2022/04/18 08:09:33;;;;;;;4.43;2.50;;;;;;;-150.27;100.00;61272.81;5227808;28;20025;-87
2022/04/18 08:12:06;;;;;;;5.43;1.90;;;;;;;-150.27;100.00;61272.81;5228774;28;20069;-85
2022/04/18 08:14:37;;;;;;;3.40;1.73;;;;;;;-150.27;100.00;61272.81;5227692;28;20029;-86
2022/04/18 08:17:09;;;;;;;2.53;1.75;;;;;;;-150.27;100.00;61272.81;5228487;28;20040;-86
2022/04/18 08:19:40;;;;;;;5.18;1.80;;;;;;;-150.27;100.00;61272.81;5227920;28;20025;-87
2022/04/18 08:22:11;;;;;;;3.35;1.80;;;;;;;-150.27;100.00;61272.81;5226828;28;20485;-86
2022/04/18 08:24:43;;;;;;;3.92;1.95;;;;;;;-150.27;100.00;61272.81;5230094;28;20036;-86
2022/04/18 08:27:14;;;;;;;3.03;1.60;;;;;;;-150.27;100.00;61272.81;5236541;28;20036;-87
2022/04/18 08:29:46;;;;;;;3.95;1.60;;;;;;;-150.27;100.00;61272.81;5248972;28;20379;-86
2022/04/18 08:32:17;;;;;;;2.95;1.95;;;;;;;-150.27;100.00;61272.81;5249065;28;20620;-82
2022/04/18 08:34:48;;;;;;;5.32;1.90;;;;;;;-150.27;100.00;61272.81;5241599;28;20758;-86
2022/04/18 08:37:20;;;;;;;4.07;1.58;;;;;;;-150.27;100.00;61272.81;5248828;28;20021;-87
2022/04/18 08:39:51;;;;;;;2.95;1.88;;;;;;;-150.27;100.00;61272.81;5248600;28;20069;-86
2022/04/18 08:42:23;;;;;;;8.07;1.90;;;;;;;-150.27;100.00;61272.81;5242465;28;20030;-86
2022/04/18 08:44:55;;;;;;;3.15;1.40;;;;;;;-150.27;100.00;61272.81;5247197;28;20025;-86
2022/04/18 08:53:08;;;;;;;5.32;2.00;;;;;;;-150.27;100.00;61272.81;5248944;28;20041;-71
2022/04/18 08:55:41;;;;;;;2.55;1.42;;;;;;;-150.27;100.00;61272.81;5247919;28;20096;-74
2022/04/18 08:58:14;;;;;;;3.10;1.77;;;;;;;-150.27;100.00;61272.81;5248958;28;20079;-74
2022/04/18 09:00:46;;;;;;;2.90;1.73;;;;;;;-150.27;100.00;61272.81;5245965;28;20036;-76
2022/04/18 09:03:17;;;;;;;4.93;2.15;;;;;;;-150.27;100.00;61272.81;5232741;28;20041;-75
2022/04/18 09:05:49;;;;;;;3.05;1.52;;;;;;;-150.27;100.00;61272.81;5235206;28;20021;-75
2022/04/18 09:08:21;;;;;;;3.35;1.60;;;;;;;-150.27;100.00;61272.81;5234897;28;20020;-75
2022/04/18 09:10:53;;;;;;;2.45;1.38;;;;;;;-150.27;100.00;61272.81;5245082;28;20124;-77
2022/04/18 09:13:24;;;;;;;2.47;1.50;;;;;;;-150.27;100.00;61272.81;5233062;28;20444;-76
2022/04/18 09:15:55;;;;;;;2.95;1.80;;;;;;;-150.27;100.00;61272.81;5194322;28;21013;-78
2022/04/18 09:18:28;;;;;;;2.53;1.55;;;;;;;-150.27;100.00;61272.81;5222162;28;20120;-77
2022/04/18 09:21:04;;;;;;;3.67;1.85;;;;;;;-150.27;100.00;61272.81;5244084;28;20021;-77
2022/04/18 09:23:35;;;;;;;6.45;1.92;;;;;;;-150.27;100.00;61272.81;5230361;28;20044;-76
2022/04/18 09:26:08;;;;;;;4.95;1.98;;;;;;;-150.27;100.00;61272.81;5202245;28;20052;-76
2022/04/18 09:28:41;;;;;;;3.00;1.88;;;;;;;-150.27;100.00;61272.81;5213123;28;20058;-76
2022/04/18 09:31:17;;;;;;;4.05;1.73;;;;;;;-150.27;100.00;61272.81;5222800;28;20339;-76
2022/04/18 09:33:54;;;;;;;3.22;1.77;;;;;;;-150.27;100.00;61272.81;5224378;28;20048;-76
2022/04/18 09:36:25;;;;;;;3.28;1.83;;;;;;;-150.27;100.00;61272.81;5219239;28;20108;-76
2022/04/18 09:38:57;;;;;;;3.42;1.85;;;;;;;-150.27;100.00;61272.81;5221488;28;20034;-75
2022/04/18 09:41:30;;;;;;;3.15;2.00;;;;;;;-150.27;100.00;61272.81;5241968;28;20017;-75
2022/04/18 09:44:02;;;;;;;3.63;2.00;;;;;;;-150.27;100.00;61272.81;5229835;28;20030;-76
2022/04/18 09:46:34;;;;;;;5.07;2.25;;;;;;;-150.27;100.00;61272.81;5202920;28;20064;-75
2022/04/18 09:49:05;;;;;;;6.28;2.47;;;;;;;-150.27;100.00;61272.81;5226065;28;20052;-76
2022/04/18 09:51:39;;;;;;;2.70;1.95;;;;;;;-150.27;100.00;61272.81;5239488;28;20120;-76
2022/04/18 09:54:11;;;;;;;2.75;1.90;;;;;;;-150.27;100.00;61272.81;5245441;28;20027;-76
2022/04/18 09:56:51;;;;;;;4.03;2.00;;;;;;;-150.27;100.00;61272.81;5225583;28;20029;-75
2022/04/18 09:59:23;;;;;;;4.35;1.90;;;;;;;-150.27;100.00;61272.81;5224076;28;20033;-75
2022/04/18 10:01:54;;;;;;;2.83;1.60;;;;;;;-150.27;100.00;61272.81;5226724;28;20523;-76
2022/04/18 10:04:26;;;;;;;3.60;2.28;;;;;;;-150.27;100.00;61272.81;5248229;28;20045;-76
2022/04/18 10:06:59;;;;;;;5.90;2.15;;;;;;;-150.27;100.00;61272.81;5241694;28;20030;-75
2022/04/18 10:09:30;;;;;;;2.97;1.95;;;;;;;-150.27;100.00;61272.81;5230641;28;20055;-75
2022/04/18 10:12:03;;;;;;;3.55;2.10;;;;;;;-150.27;100.00;61272.81;5213235;28;20127;-75
2022/04/18 10:14:35;;;;;;;3.58;2.30;;;;;;;-150.27;100.00;61272.81;5194726;28;20042;-76
2022/04/18 10:17:08;;;;;;;2.67;1.92;;;;;;;-150.27;100.00;61272.81;5230170;28;20032;-76
2022/04/18 10:20:09;;;;;;;5.10;2.88;;;;;;;-150.27;100.00;61272.81;5228144;28;20033;-75
2022/04/18 10:23:25;;;;;;;3.70;2.10;;;;;;;-150.27;100.00;61272.81;5184042;28;20076;-74
2022/04/18 10:26:22;;;;;;;5.50;2.50;;;;;;;-150.27;100.00;61272.81;5245720;28;20047;-75
2022/04/18 10:28:55;;;;;;;3.53;2.30;;;;;;;-150.27;100.00;61272.81;5247154;28;20071;-76
2022/04/18 10:31:33;;;;;;;4.18;2.50;;;;;;;-150.27;100.00;61272.81;5232736;28;20062;-72
2022/04/18 10:34:12;;;;;;;3.53;2.15;;;;;;;-150.27;100.00;61272.81;5243735;28;20032;-70
2022/04/18 10:36:50;;;;;;;4.43;2.30;;;;;;;-150.27;100.00;61272.81;5221597;28;20033;-72
2022/04/18 10:39:22;;;;;;;3.20;2.40;;;;;;;-150.27;100.00;61272.81;5239690;28;20029;-70
2022/04/18 10:41:53;;;;;;;3.33;2.28;;;;;;;-150.27;100.00;61272.81;5217343;28;20036;-73
2022/04/18 10:44:33;;;;;;;3.65;2.17;;;;;;;-150.27;100.00;61272.81;5250492;28;20431;-69
2022/04/18 10:47:04;;;;;;;3.45;1.95;;;;;;;-150.27;100.00;61272.81;5241162;28;20029;-70
2022/04/18 10:49:36;;;;;;;3.33;2.20;;;;;;;-150.27;100.00;61272.81;5249577;28;20533;-70
2022/04/18 10:52:09;;;;;;;3.88;2.50;;;;;;;-150.27;100.00;61272.81;5248389;28;20033;-71
2022/04/18 10:54:59;;;;;;;3.15;2.28;;;;;;;-150.27;100.00;61272.81;5212304;28;20033;-72
2022/04/18 10:57:30;;;;;;;6.22;2.05;;;;;;;-150.27;100.00;61272.81;5252035;28;20088;-77
2022/04/18 11:00:05;;;;;;;2.53;1.88;;;;;;;-150.27;100.00;61272.81;5244047;28;20108;-77
2022/04/18 11:02:39;;;;;;;2.55;2.00;;;;;;;-150.27;100.00;61272.81;5238876;28;20025;-73
2022/04/18 11:05:11;;;;;;;3.10;2.22;;;;;;;-150.27;100.00;61272.81;5211820;28;20045;-73
2022/04/18 11:07:45;;;;;;;5.70;2.20;;;;;;;-150.27;100.00;61272.81;5230524;28;20507;-73
2022/04/18 11:10:18;;;;;;;3.22;2.28;;;;;;;-150.27;100.00;61272.81;5229388;28;20029;-74
2022/04/18 11:12:50;;;;;;;3.80;2.53;;;;;;;-150.27;100.00;61272.81;5232310;28;20037;-71
2022/04/18 11:15:22;;;;;;;4.53;2.45;;;;;;;-150.27;100.00;61272.81;5228747;28;20346;-70
2022/04/18 11:17:53;;;;;;;3.85;2.15;;;;;;;-150.27;100.00;61272.81;5226946;28;20037;-69
2022/04/18 11:20:32;;;;;;;3.38;2.03;;;;;;;-150.27;100.00;61272.81;5228406;28;20120;-69
2022/04/18 11:23:23;;;;;;;3.72;2.50;;;;;;;-150.27;100.00;61272.81;5228413;28;20036;-69
2022/04/18 11:26:00;;;;;;;3.85;2.45;;;;;;;-150.27;100.00;61272.81;5228981;28;20080;-69
2022/04/18 11:28:37;;;;;;;3.67;2.10;;;;;;;-150.27;100.00;61272.81;5228615;28;20025;-69
2022/04/18 11:31:10;;;;;;;3.22;2.60;;;;;;;-150.27;100.00;61272.81;5227304;28;20064;-69
2022/04/18 11:33:42;;;;;;;4.35;3.20;;;;;;;-150.27;100.00;61272.81;5223983;28;20040;-69
2022/04/18 11:36:14;;;;;;;2.92;2.47;;;;;;;-150.27;100.00;61272.81;5228717;28;20045;-69
2022/04/18 11:38:46;;;;;;;3.53;2.33;;;;;;;-150.27;100.00;61272.81;5227324;28;20032;-70
2022/04/18 11:41:18;;;;;;;4.22;2.70;;;;;;;-150.27;100.00;61272.81;5227744;28;20056;-69
2022/04/18 11:43:56;;;;;;;6.97;3.53;;;;;;;-150.27;100.00;61272.81;5219855;28;20480;-70
2022/04/18 11:46:29;;;;;;;7.22;2.78;;;;;;;-150.27;100.00;61272.81;5248426;28;20037;-70
2022/04/18 11:49:00;;;;;;;4.88;2.47;;;;;;;-150.27;100.00;61272.81;5246518;28;20048;-70
2022/04/18 11:51:42;;;;;;;5.80;2.53;;;;;;;-150.27;100.00;61272.81;5230495;28;20107;-69